createdAt,value
2018-09-17T00:02:47.975Z,11.80
2018-09-17T00:07:54.276Z,11.80
2018-09-17T00:12:59.787Z,11.70
2018-09-17T00:18:05.699Z,11.70
2018-09-17T00:23:13.522Z,11.70
2018-09-17T00:28:26.259Z,11.60
2018-09-17T00:33:31.519Z,11.50
2018-09-17T00:38:38.417Z,11.40
2018-09-17T00:43:44.535Z,11.30
2018-09-17T00:48:50.918Z,11.20
2018-09-17T00:53:57.266Z,11.20
2018-09-17T00:59:04.231Z,11.10
2018-09-17T01:04:10.767Z,11.10
2018-09-17T01:09:23.897Z,11.00
2018-09-17T01:14:30.302Z,11.00
2018-09-17T01:19:42.731Z,10.90
2018-09-17T01:24:49.934Z,10.90
2018-09-17T01:29:55.304Z,10.80
2018-09-17T01:35:02.447Z,10.90
2018-09-17T01:40:09.720Z,10.90
2018-09-17T01:45:15.370Z,11.00
2018-09-17T01:50:21.131Z,10.90
2018-09-17T01:55:28.118Z,10.90
2018-09-17T02:00:33.939Z,10.80
2018-09-17T02:05:39.917Z,10.70
2018-09-17T02:10:59.629Z,10.80
2018-09-17T02:16:05.604Z,10.80
2018-09-17T02:21:12.764Z,10.80
2018-09-17T02:26:18.271Z,10.90
2018-09-17T02:31:23.782Z,10.90
2018-09-17T02:36:32.995Z,10.90
2018-09-17T02:41:39.382Z,11.00
2018-09-17T02:46:44.952Z,11.00
2018-09-17T02:51:50.213Z,11.00
2018-09-17T02:56:55.871Z,11.00
2018-09-17T03:02:10.770Z,10.90
2018-09-17T03:07:16.038Z,10.80
2018-09-17T03:12:21.602Z,10.70
2018-09-17T03:23:04.689Z,10.50
2018-09-17T03:28:09.649Z,10.40
2018-09-17T03:33:14.589Z,10.50
2018-09-17T03:38:35.446Z,10.40
2018-09-17T03:43:41.828Z,10.50
2018-09-17T03:48:46.800Z,10.40
2018-09-17T03:53:51.102Z,10.30
2018-09-17T03:58:56.064Z,10.20
2018-09-17T04:04:00.611Z,10.20
2018-09-17T04:09:07.019Z,10.20
2018-09-17T04:14:12.053Z,10.10
2018-09-17T04:19:31.754Z,10.10
2018-09-17T04:24:37.220Z,10.10
2018-09-17T04:29:42.023Z,10.00
2018-09-17T04:34:46.825Z,10.00
2018-09-17T04:39:51.547Z,10.00
2018-09-17T04:44:56.301Z,10.00
2018-09-17T04:50:00.739Z,10.00
2018-09-17T04:55:05.701Z,10.00
2018-09-17T05:00:10.404Z,10.00
2018-09-17T05:05:14.860Z,9.90
2018-09-17T05:10:19.494Z,9.90
2018-09-17T05:15:24.075Z,9.90
2018-09-17T05:20:28.656Z,10.00
2018-09-17T05:25:33.230Z,10.00
2018-09-17T05:30:37.793Z,10.10
2018-09-17T05:35:43.296Z,10.30
2018-09-17T05:40:47.894Z,10.40
2018-09-17T05:45:52.343Z,10.50
2018-09-17T05:50:57.016Z,10.60
2018-09-17T05:56:01.587Z,10.70
2018-09-17T06:01:06.154Z,10.90
2018-09-17T06:06:11.358Z,11.10
2018-09-17T06:11:15.917Z,11.30
2018-09-17T06:16:20.364Z,11.50
2018-09-17T06:21:25.269Z,11.80
2018-09-17T06:26:30.481Z,12.10
2018-09-17T06:31:35.737Z,12.50
2018-09-17T06:36:40.199Z,12.70
2018-09-17T06:41:44.657Z,12.90
2018-09-17T06:46:49.156Z,13.10
2018-09-17T06:51:53.892Z,13.30
2018-09-17T06:56:58.587Z,13.50
2018-09-17T07:02:03.196Z,13.70
2018-09-17T07:07:08.865Z,14.00
2018-09-17T07:12:13.655Z,14.30
2018-09-17T07:17:18.232Z,14.60
2018-09-17T07:22:22.855Z,14.90
2018-09-17T07:27:28.062Z,15.10
2018-09-17T07:32:32.845Z,15.40
2018-09-17T07:37:39.708Z,15.60
2018-09-17T07:42:44.252Z,15.90
2018-09-17T07:47:48.756Z,16.00
2018-09-17T07:52:53.307Z,16.20
2018-09-17T07:57:57.946Z,16.70
2018-09-17T08:03:02.534Z,17.00
2018-09-17T08:08:07.194Z,17.30
2018-09-17T08:13:12.342Z,17.70
2018-09-17T08:18:16.795Z,18.10
2018-09-17T08:23:21.669Z,18.60
2018-09-17T08:28:26.130Z,19.00
2018-09-17T08:33:31.214Z,19.40
2018-09-17T08:38:35.840Z,19.80
2018-09-17T08:43:40.344Z,20.10
2018-09-17T08:48:44.855Z,20.00
2018-09-17T08:53:49.478Z,19.70
2018-09-17T08:58:58.868Z,20.00
2018-09-17T09:04:08.628Z,20.30
2018-09-17T09:09:14.112Z,20.60
2018-09-17T09:14:23.943Z,21.00
2018-09-17T09:19:28.443Z,21.50
2018-09-17T09:24:32.963Z,22.00
2018-09-17T09:29:37.555Z,22.60
2018-09-17T09:34:41.991Z,23.00
2018-09-17T09:39:46.300Z,22.90
2018-09-17T09:44:50.626Z,23.30
2018-09-17T09:49:55.314Z,22.90
2018-09-17T09:54:59.873Z,23.20
2018-09-17T10:00:04.629Z,23.70
2018-09-17T10:05:11.231Z,24.10
2018-09-17T10:10:20.985Z,24.50
2018-09-17T10:15:30.504Z,25.00
2018-09-17T10:20:35.668Z,24.80
2018-09-17T10:25:40.083Z,24.50
2018-09-17T10:30:44.328Z,24.40
2018-09-17T10:35:49.487Z,24.50
2018-09-17T10:40:53.781Z,24.50
2018-09-17T10:45:58.107Z,25.10
2018-09-17T10:51:02.549Z,25.50
2018-09-17T10:56:07.240Z,26.20
2018-09-17T11:01:11.740Z,26.60
2018-09-17T11:06:16.192Z,26.80
2018-09-17T11:11:20.554Z,27.70
2018-09-17T11:16:25.044Z,28.40
2018-09-17T11:21:29.517Z,28.80
2018-09-17T11:26:33.915Z,29.10
2018-09-17T11:31:38.295Z,29.10
2018-09-17T11:36:42.834Z,28.70
2018-09-17T11:41:47.303Z,28.70
2018-09-17T11:46:51.868Z,28.10
2018-09-17T11:51:56.334Z,28.10
2018-09-17T11:57:00.708Z,28.30
2018-09-17T12:02:09.372Z,29.60
2018-09-17T12:07:19.283Z,29.80
2018-09-17T12:12:23.684Z,30.50
2018-09-17T12:17:29.844Z,31.50
2018-09-17T12:22:34.352Z,32.60
2018-09-17T12:27:39.437Z,33.50
2018-09-17T12:32:43.882Z,33.00
2018-09-17T12:37:48.309Z,33.70
2018-09-17T12:42:53.062Z,34.80
2018-09-17T12:47:57.536Z,35.40
2018-09-17T12:53:02.041Z,37.00
2018-09-17T12:58:07.031Z,38.40
2018-09-17T13:03:11.402Z,38.90
2018-09-17T13:08:15.949Z,39.60
2018-09-17T13:13:20.455Z,38.40
2018-09-17T13:18:26.197Z,35.20
2018-09-17T13:23:30.658Z,35.90
2018-09-17T13:28:35.534Z,38.30
2018-09-17T13:33:40.618Z,40.40
2018-09-17T13:38:45.052Z,40.40
2018-09-17T13:43:50.521Z,41.60
2018-09-17T13:48:55.062Z,40.60
2018-09-17T13:53:59.485Z,39.50
2018-09-17T13:59:04.049Z,38.60
2018-09-17T14:04:08.657Z,39.10
2018-09-17T14:09:13.720Z,38.60
2018-09-17T14:14:18.120Z,38.20
2018-09-17T14:19:22.645Z,40.00
2018-09-17T14:24:27.114Z,42.40
2018-09-17T14:29:31.586Z,43.60
2018-09-17T14:34:36.044Z,42.20
2018-09-17T14:39:40.509Z,41.80
2018-09-17T14:44:44.959Z,42.50
2018-09-17T14:49:49.429Z,43.10
2018-09-17T14:54:53.769Z,44.00
2018-09-17T14:59:58.272Z,42.90
2018-09-17T15:05:02.944Z,42.90
2018-09-17T15:10:07.581Z,41.00
2018-09-17T15:15:11.947Z,42.10
2018-09-17T15:20:16.302Z,41.70
2018-09-17T15:25:20.883Z,41.60
2018-09-17T15:30:25.322Z,39.70
2018-09-17T15:35:29.755Z,38.30
2018-09-17T15:40:34.305Z,38.40
2018-09-17T15:45:38.702Z,40.60
2018-09-17T15:50:43.099Z,40.20
2018-09-17T15:55:47.555Z,39.30
2018-09-17T16:00:52.170Z,38.30
2018-09-17T16:05:56.613Z,38.60
2018-09-17T16:11:01.070Z,39.70
2018-09-17T16:16:05.518Z,39.90
2018-09-17T16:21:10.047Z,39.50
2018-09-17T16:26:14.386Z,39.70
2018-09-17T16:31:18.747Z,40.90
2018-09-17T16:36:23.263Z,41.50
2018-09-17T16:41:27.468Z,40.40
2018-09-17T16:46:31.882Z,37.90
2018-09-17T16:51:37.180Z,35.80
2018-09-17T16:56:41.570Z,34.20
2018-09-17T17:01:45.904Z,32.90
2018-09-17T17:06:50.405Z,31.80
2018-09-17T17:11:55.774Z,30.70
2018-09-17T17:17:00.190Z,29.60
2018-09-17T17:22:04.586Z,28.70
2018-09-17T17:27:09.049Z,27.70
2018-09-17T17:32:14.214Z,27.10
2018-09-17T17:37:18.651Z,26.50
2018-09-17T17:42:23.043Z,25.90
2018-09-17T17:47:27.767Z,25.20
2018-09-17T17:52:32.271Z,24.60
2018-09-17T17:57:36.797Z,24.10
2018-09-17T18:02:41.401Z,23.60
2018-09-17T18:07:45.716Z,23.20
2018-09-17T18:12:50.796Z,22.80
2018-09-17T18:17:55.240Z,22.50
2018-09-17T18:22:59.801Z,22.20
2018-09-17T18:28:04.532Z,21.90
2018-09-17T18:33:09.428Z,21.60
2018-09-17T18:38:16.743Z,21.30
2018-09-17T18:43:21.151Z,21.00
2018-09-17T18:48:25.819Z,20.60
2018-09-17T18:53:30.430Z,20.40
2018-09-17T18:58:35.679Z,20.20
2018-09-17T19:03:40.594Z,20.00
2018-09-17T19:08:45.856Z,19.90
2018-09-17T19:13:55.875Z,19.70
2018-09-17T19:19:00.425Z,19.60
2018-09-17T19:24:06.466Z,19.40
2018-09-17T19:29:19.006Z,19.20
2018-09-17T19:34:23.527Z,19.10
2018-09-17T19:39:33.297Z,18.90
2018-09-17T19:44:37.698Z,18.80
2018-09-17T19:49:42.175Z,18.70
2018-09-17T19:54:47.027Z,18.50
2018-09-17T19:59:52.548Z,18.40
2018-09-17T20:05:02.440Z,18.20
2018-09-17T20:10:08.307Z,18.10
2018-09-17T20:15:12.720Z,18.00
2018-09-17T20:20:17.323Z,17.80
2018-09-17T20:25:21.865Z,17.60
2018-09-17T20:30:26.564Z,17.50
2018-09-17T20:35:31.227Z,17.40
2018-09-17T20:40:35.829Z,17.20
2018-09-17T20:45:40.514Z,17.10
2018-09-17T20:50:47.321Z,17.00
2018-09-17T20:55:51.669Z,16.90
2018-09-17T21:00:56.585Z,16.80
2018-09-17T21:06:01.164Z,16.80
2018-09-17T21:11:06.647Z,16.70
2018-09-17T21:16:11.561Z,16.60
2018-09-17T21:21:16.403Z,16.50
2018-09-17T21:26:26.551Z,16.50
2018-09-17T21:31:31.148Z,16.30
2018-09-17T21:36:36.208Z,16.30
2018-09-17T21:41:41.003Z,16.20
2018-09-17T21:46:45.944Z,16.20
2018-09-17T21:51:50.931Z,16.20
2018-09-17T21:56:56.048Z,16.20
2018-09-17T22:02:01.098Z,16.30
2018-09-17T22:07:07.309Z,16.30
2018-09-17T22:12:12.759Z,16.40
2018-09-17T22:17:17.402Z,16.50
2018-09-17T22:22:22.087Z,16.50
2018-09-17T22:27:26.905Z,16.70
2018-09-17T22:32:31.637Z,16.80
2018-09-17T22:37:36.461Z,16.80
2018-09-17T22:42:41.534Z,16.80
2018-09-17T22:47:46.619Z,16.90
2018-09-17T22:52:52.596Z,17.20
2018-09-17T22:57:57.234Z,17.30
2018-09-17T23:03:02.402Z,17.50
2018-09-17T23:08:07.728Z,17.60
2018-09-17T23:13:13.703Z,17.50
2018-09-17T23:18:18.554Z,17.40
2018-09-17T23:23:23.596Z,17.20
2018-09-17T23:28:28.690Z,17.00
2018-09-17T23:34:21.766Z,16.90
2018-09-17T23:39:26.389Z,16.70
2018-09-17T23:44:31.217Z,16.40
2018-09-17T23:49:47.037Z,16.20
2018-09-17T23:54:51.947Z,16.10
2018-09-17T23:59:57.013Z,16.00
